Time;durP1;ratioP1;P1;durP2;ratioP2;P2;SDS_P1;SDS_P2;PMS_P1;PMS_P2;Temp;Humidity;BMP_temperature;BMP_pressure;BME280_temperature;BME280_humidity;BME280_pressure;Samples;Min_cycle;Max_cycle;Signal;HPM_P1;HPM_P2
2021/12/03 00:01:41;;;;;;;2.75;2.55;;;;;;;;;;5077266;28;20304;-86
2021/12/03 00:04:08;;;;;;;7.90;4.00;;;;;;;;;;5079593;28;20208;-86
2021/12/03 00:06:37;;;;;;;5.35;3.20;;;;;;;;;;5080700;28;20289;-86
2021/12/03 00:09:06;;;;;;;5.18;3.30;;;0.40;99.90;;;;;;5082237;28;20245;-86
2021/12/03 00:11:35;;;;;;;5.65;3.50;;;;;;;;;;5081718;28;20203;-86
2021/12/03 00:14:02;;;;;;;4.15;2.92;;;;;;;;;;5077009;28;20976;-86
2021/12/03 00:16:29;;;;;;;4.35;3.78;;;;;;;;;;5080769;28;20329;-85
2021/12/03 00:18:57;;;;;;;4.93;3.45;;;;;;;;;;5079736;28;20269;-85
2021/12/03 00:21:25;;;;;;;3.90;3.47;;;;;;;;;;5082432;28;20195;-85
2021/12/03 00:23:53;;;;;;;8.48;4.65;;;;;;;;;;5076465;28;20261;-85
2021/12/03 00:26:20;;;;;;;4.85;3.13;;;;;;;;;;5082925;28;20227;-85
2021/12/03 00:28:48;;;;;;;7.93;4.60;;;;;;;;;;5080014;28;20226;-84
2021/12/03 00:31:17;;;;;;;6.28;4.07;;;0.10;99.90;;;;;;5081910;28;20227;-84
2021/12/03 00:33:44;;;;;;;6.82;3.90;;;;;;;;;;5083252;28;20202;-84
2021/12/03 00:36:12;;;;;;;6.30;3.92;;;;;;;;;;5075928;28;22190;-84
2021/12/03 00:38:42;;;;;;;5.03;4.18;;;0.10;99.90;;;;;;5079203;28;20198;-84
2021/12/03 00:41:12;;;;;;;7.82;3.83;;;;;;;;;;5081523;28;20203;-84
2021/12/03 00:43:42;;;;;;;6.50;4.82;;;;;;;;;;5073518;28;20207;-84
2021/12/03 00:46:14;;;;;;;6.13;4.22;;;0.00;99.90;;;;;;5082006;28;20260;-84
2021/12/03 00:48:41;;;;;;;7.18;4.78;;;;;;;;;;5070432;28;20223;-84
2021/12/03 00:51:11;;;;;;;6.13;4.32;;;0.00;99.90;;;;;;5078344;28;20412;-84
2021/12/03 00:53:38;;;;;;;4.88;3.90;;;;;;;;;;5082603;28;20302;-83
2021/12/03 00:56:05;;;;;;;8.20;5.60;;;;;;;;;;5080180;28;20288;-83
2021/12/03 00:58:33;;;;;;;5.65;4.10;;;;;;;;;;5082091;28;20607;-83
2021/12/03 01:01:00;;;;;;;4.82;4.32;;;;;;;;;;5082875;28;20218;-83
2021/12/03 01:03:29;;;;;;;9.40;4.07;;;;;;;;;;5076708;28;20238;-82
2021/12/03 01:05:56;;;;;;;6.75;4.75;;;;;;;;;;5079164;28;20620;-83
2021/12/03 01:08:23;;;;;;;6.20;5.10;;;;;;;;;;5078801;28;20609;-84
2021/12/03 01:10:51;;;;;;;4.65;3.78;;;;;;;;;;5079487;28;20291;-83
2021/12/03 01:13:18;;;;;;;6.60;5.55;;;;;;;;;;5073056;28;20250;-83
2021/12/03 01:15:46;;;;;;;7.82;4.93;;;;;;;;;;5074615;28;20278;-83
2021/12/03 01:18:13;;;;;;;5.47;4.45;;;;;;;;;;5080296;28;20641;-83
2021/12/03 01:20:42;;;;;;;6.95;4.50;;;;;;;;;;5079259;28;20295;-83
2021/12/03 01:23:11;;;;;;;8.38;2.97;;;;;;;;;;5075263;28;20235;-83
2021/12/03 01:25:38;;;;;;;6.05;5.10;;;;;;;;;;5082421;28;20206;-83
2021/12/03 01:28:05;;;;;;;6.30;5.70;;;;;;;;;;5076254;28;20290;-83
2021/12/03 01:30:33;;;;;;;4.13;3.72;;;;;;;;;;5081682;28;20233;-83
2021/12/03 01:33:01;;;;;;;4.88;4.45;;;0.20;99.90;;;;;;5078780;28;20203;-82
2021/12/03 01:35:29;;;;;;;5.68;4.15;;;0.30;99.90;;;;;;5077431;28;20291;-83
2021/12/03 01:37:58;;;;;;;4.93;4.20;;;0.30;99.90;;;;;;5075333;28;20254;-83
2021/12/03 01:40:26;;;;;;;7.57;5.20;;;;;;;;;;5070618;28;20266;-83
2021/12/03 01:42:54;;;;;;;7.55;5.30;;;;;;;;;;5074776;28;20223;-84
2021/12/03 01:45:24;;;;;;;6.80;5.70;;;0.20;99.90;;;;;;5075980;28;20212;-83
2021/12/03 01:47:52;;;;;;;8.52;5.35;;;0.30;99.90;;;;;;5083104;28;20203;-83
2021/12/03 01:50:23;;;;;;;8.30;5.68;;;0.20;99.90;;;;;;5078232;28;20214;-82
2021/12/03 01:52:50;;;;;;;7.13;6.43;;;;;;;;;;5075148;28;20199;-83
2021/12/03 01:55:19;;;;;;;11.68;6.10;;;;;;;;;;5079030;28;20285;-83
2021/12/03 01:57:46;;;;;;;5.78;5.20;;;;;;;;;;5076020;28;20310;-83
2021/12/03 02:00:16;;;;;;;6.13;4.82;;;;;;;;;;5080124;28;20286;-83
2021/12/03 02:02:43;;;;;;;7.70;5.10;;;;;;;;;;5076494;28;20234;-83
2021/12/03 02:05:10;;;;;;;7.97;5.55;;;-0.10;99.90;;;;;;5075157;28;20291;-83
2021/12/03 02:07:38;;;;;;;8.25;6.25;;;;;;;;;;5080099;28;20195;-83
2021/12/03 02:10:07;;;;;;;8.35;6.85;;;;;;;;;;5079857;28;20603;-82
2021/12/03 02:12:37;;;;;;;5.80;4.43;;;0.00;99.90;;;;;;5072388;28;20299;-83
2021/12/03 02:15:05;;;;;;;6.07;5.32;;;;;;;;;;5076087;28;20200;-82
2021/12/03 02:17:32;;;;;;;13.80;6.43;;;;;;;;;;5078783;28;20234;-83
2021/12/03 02:20:00;;;;;;;8.15;5.55;;;;;;;;;;5077929;28;20286;-83
2021/12/03 02:22:32;;;;;;;6.93;5.25;;;;;;;;;;5076454;28;20199;-82
2021/12/03 02:25:00;;;;;;;8.82;6.55;;;;;;;;;;5080492;28;20200;-83
2021/12/03 02:27:28;;;;;;;9.48;5.88;;;;;;;;;;5079480;28;20207;-83
2021/12/03 02:29:56;;;;;;;9.82;6.57;;;;;;;;;;5080777;28;20249;-82
2021/12/03 02:32:25;;;;;;;7.32;5.90;;;;;;;;;;5082155;28;20228;-83
2021/12/03 02:34:52;;;;;;;6.60;5.70;;;;;;;;;;5086540;28;20200;-83
2021/12/03 02:37:20;;;;;;;8.68;4.72;;;;;;;;;;5077028;28;20226;-83
2021/12/03 02:39:48;;;;;;;10.13;6.93;;;;;;;;;;5086580;28;20304;-83
2021/12/03 02:42:16;;;;;;;9.10;4.93;;;;;;;;;;5083274;28;20238;-82
2021/12/03 02:44:44;;;;;;;8.88;6.90;;;;;;;;;;5083976;28;20246;-83
2021/12/03 02:47:12;;;;;;;10.93;6.95;;;;;;;;;;5075958;28;20195;-83
2021/12/03 02:49:39;;;;;;;12.13;6.60;;;;;;;;;;5083121;28;20213;-83
2021/12/03 02:52:07;;;;;;;10.68;6.90;;;-2.00;99.90;;;;;;5079472;28;20585;-83
2021/12/03 02:54:35;;;;;;;6.65;5.35;;;;;;;;;;5084659;28;20202;-83
2021/12/03 02:57:04;;;;;;;7.50;5.72;;;-0.10;99.90;;;;;;5081144;28;20273;-83
2021/12/03 02:59:33;;;;;;;8.50;6.03;;;;;;;;;;5079910;28;20678;-83
2021/12/03 03:02:01;;;;;;;7.70;5.80;;;;;;;;;;5081619;28;20199;-83
2021/12/03 03:04:28;;;;;;;9.10;6.32;;;;;;;;;;5080670;28;20192;-83
2021/12/03 03:06:55;;;;;;;9.40;5.90;;;;;;;;;;5080826;28;20195;-83
2021/12/03 03:09:24;;;;;;;5.90;5.10;;;;;;;;;;5081792;28;20203;-83
2021/12/03 03:11:51;;;;;;;6.43;4.82;;;;;;;;;;5077975;28;20207;-83
2021/12/03 03:14:20;;;;;;;8.55;5.68;;;;;;;;;;5079894;28;20720;-83
2021/12/03 03:16:48;;;;;;;10.73;7.20;;;;;;;;;;5081608;28;20290;-83
2021/12/03 03:19:16;;;;;;;9.43;6.18;;;0.10;99.90;;;;;;5080903;28;20232;-83
2021/12/03 03:21:44;;;;;;;9.15;6.63;;;;;;;;;;5080768;28;20195;-84
2021/12/03 03:24:11;;;;;;;11.43;4.90;;;;;;;;;;5078466;28;20199;-84
2021/12/03 03:26:41;;;;;;;9.45;5.38;;;0.10;99.90;;;;;;5081666;28;20283;-84
2021/12/03 03:29:10;;;;;;;10.38;6.53;;;0.10;99.90;;;;;;5085071;28;20285;-84
2021/12/03 03:31:39;;;;;;;10.95;6.35;;;0.10;99.90;;;;;;5080182;28;20649;-84
2021/12/03 03:34:07;;;;;;;7.28;5.88;;;0.10;99.90;;;;;;5083978;28;20226;-83
2021/12/03 03:36:35;;;;;;;10.50;6.90;;;;;;;;;;5080838;28;20227;-84
2021/12/03 03:39:02;;;;;;;8.90;6.35;;;;;;;;;;5081333;28;20319;-84
2021/12/03 03:41:30;;;;;;;8.13;6.10;;;;;;;;;;5082168;28;20262;-84
2021/12/03 03:43:57;;;;;;;10.35;5.85;;;;;;;;;;5082112;28;20204;-84
2021/12/03 03:46:24;;;;;;;7.68;6.28;;;;;;;;;;5078442;28;20203;-84
2021/12/03 03:48:53;;;;;;;8.50;5.82;;;;;;;;;;5077918;28;20282;-84
2021/12/03 03:51:21;;;;;;;9.60;6.20;;;0.20;99.90;;;;;;5074920;28;20227;-84
2021/12/03 03:53:48;;;;;;;7.55;6.05;;;;;;;;;;5080996;28;20608;-84
2021/12/03 03:56:15;;;;;;;8.77;7.75;;;;;;;;;;5079528;28;20258;-83
2021/12/03 03:58:42;;;;;;;11.15;8.20;;;;;;;;;;5076862;28;20309;-84
2021/12/03 04:01:10;;;;;;;7.60;6.80;;;;;;;;;;5076209;28;20310;-83
2021/12/03 04:03:37;;;;;;;9.38;6.63;;;;;;;;;;5079998;28;20215;-83
2021/12/03 04:06:05;;;;;;;14.55;7.95;;;;;;;;;;5080388;28;20207;-84
2021/12/03 04:08:33;;;;;;;9.73;6.22;;;;;;;;;;5075960;28;20647;-84
2021/12/03 04:11:02;;;;;;;10.10;6.07;;;;;;;;;;5076998;28;20226;-84
2021/12/03 04:13:29;;;;;;;9.52;7.10;;;;;;;;;;5073646;28;20202;-84
2021/12/03 04:15:56;;;;;;;10.15;6.60;;;;;;;;;;5082521;28;20274;-84
2021/12/03 04:18:24;;;;;;;14.98;8.45;;;;;;;;;;5076424;28;20292;-84
2021/12/03 04:20:51;;;;;;;10.82;6.68;;;;;;;;;;5082798;28;20196;-84
2021/12/03 04:23:20;;;;;;;14.25;7.72;;;;;;;;;;5076280;28;20287;-84
2021/12/03 04:25:47;;;;;;;12.73;7.25;;;;;;;;;;5074057;28;20235;-84
2021/12/03 04:28:15;;;;;;;10.43;7.15;;;0.40;99.90;;;;;;5074773;28;20325;-84
2021/12/03 04:30:43;;;;;;;8.70;7.28;;;;;;;;;;5078054;28;20226;-84
2021/12/03 04:33:10;;;;;;;8.98;6.32;;;;;;;;;;5075207;28;20282;-84
2021/12/03 04:35:37;;;;;;;12.50;6.97;;;;;;;;;;5080891;28;20281;-84
2021/12/03 04:38:05;;;;;;;13.32;7.70;;;0.30;99.90;;;;;;5083791;28;20227;-84
2021/12/03 04:40:39;;;;;;;12.05;8.20;;;0.50;99.90;;;;;;5078357;28;20254;-84
2021/12/03 04:43:06;;;;;;;8.20;5.82;;;;;;;;;;5075654;28;20286;-84
2021/12/03 04:45:33;;;;;;;10.70;7.35;;;;;;;;;;5080782;28;20257;-85
2021/12/03 04:48:02;;;;;;;8.27;6.07;;;0.40;99.90;;;;;;5079903;28;20227;-85
2021/12/03 04:50:31;;;;;;;9.10;6.15;;;0.40;99.90;;;;;;5081631;28;20664;-84
2021/12/03 04:52:59;;;;;;;11.38;7.93;;;0.40;99.90;;;;;;5083726;28;20203;-85
2021/12/03 04:55:27;;;;;;;11.73;7.53;;;0.50;99.90;;;;;;5075752;28;20280;-84
2021/12/03 04:57:56;;;;;;;10.57;7.53;;;0.40;99.90;;;;;;5080882;28;20653;-84
2021/12/03 05:00:27;;;;;;;8.75;7.18;;;0.40;99.90;;;;;;5076647;28;20235;-84
2021/12/03 05:02:55;;;;;;;8.93;6.40;;;;;;;;;;5080190;28;20207;-85
2021/12/03 05:05:24;;;;;;;7.05;6.35;;;;;;;;;;5080764;28;20195;-84
2021/12/03 05:08:01;;;;;;;8.02;6.57;;;;;;;;;;5076559;28;20568;-84
2021/12/03 05:10:30;;;;;;;12.70;7.05;;;;;;;;;;5081017;28;20243;-84
2021/12/03 05:12:59;;;;;;;10.07;7.43;;;;;;;;;;5075933;28;20972;-84
2021/12/03 05:15:26;;;;;;;12.10;7.35;;;;;;;;;;5079371;28;20286;-85
2021/12/03 05:17:53;;;;;;;12.98;8.63;;;;;;;;;;5082832;28;20324;-84
2021/12/03 05:20:21;;;;;;;7.50;6.30;;;;;;;;;;5077234;28;20243;-84
2021/12/03 05:22:48;;;;;;;9.95;7.20;;;;;;;;;;5075015;28;20215;-85
2021/12/03 05:25:15;;;;;;;9.20;7.18;;;;;;;;;;5077682;28;20285;-85
2021/12/03 05:27:43;;;;;;;7.65;6.30;;;;;;;;;;5077188;28;20241;-84
2021/12/03 05:30:12;;;;;;;10.77;6.97;;;;;;;;;;5085852;28;20604;-84
2021/12/03 05:32:39;;;;;;;8.30;5.80;;;;;;;;;;5082614;28;20988;-84
2021/12/03 05:35:07;;;;;;;8.85;6.30;;;;;;;;;;5076936;28;20199;-84
2021/12/03 05:37:34;;;;;;;7.78;6.97;;;;;;;;;;5077819;28;20655;-84
2021/12/03 05:40:02;;;;;;;14.63;8.68;;;;;;;;;;5081908;28;20237;-85
2021/12/03 05:42:29;;;;;;;9.05;6.97;;;;;;;;;;5078979;28;20227;-85
2021/12/03 05:44:58;;;;;;;10.40;7.93;;;;;;;;;;5082149;28;20226;-85
2021/12/03 05:47:26;;;;;;;11.48;6.78;;;;;;;;;;5077753;28;20665;-85
2021/12/03 05:49:54;;;;;;;10.13;7.32;;;;;;;;;;5079062;28;20282;-85
2021/12/03 05:52:21;;;;;;;13.05;7.53;;;;;;;;;;5077242;28;20283;-85
2021/12/03 05:54:48;;;;;;;10.57;7.40;;;;;;;;;;5079562;28;20253;-85
2021/12/03 05:57:15;;;;;;;8.90;7.07;;;;;;;;;;5082448;28;20286;-84
2021/12/03 05:59:42;;;;;;;11.57;8.40;;;;;;;;;;5077225;28;20314;-84
2021/12/03 06:02:10;;;;;;;8.15;7.05;;;;;;;;;;5081748;28;20254;-84
2021/12/03 06:04:38;;;;;;;8.27;6.07;;;;;;;;;;5083214;28;20281;-84
2021/12/03 06:07:06;;;;;;;15.70;9.73;;;;;;;;;;5076021;28;20191;-84
2021/12/03 06:09:33;;;;;;;10.52;7.13;;;;;;;;;;5082593;28;20209;-85
2021/12/03 06:12:01;;;;;;;11.43;7.68;;;;;;;;;;5082269;28;20290;-85
2021/12/03 06:14:29;;;;;;;8.13;6.50;;;;;;;;;;5077490;28;20283;-85
2021/12/03 06:16:56;;;;;;;10.27;8.43;;;;;;;;;;5082592;28;20226;-85
2021/12/03 06:19:23;;;;;;;9.18;7.13;;;;;;;;;;5079794;28;20669;-84
2021/12/03 06:21:52;;;;;;;11.32;8.10;;;;;;;;;;5081831;28;20226;-86
2021/12/03 06:24:19;;;;;;;10.85;8.43;;;;;;;;;;5077382;28;20219;-86
2021/12/03 06:26:47;;;;;;;11.35;7.72;;;;;;;;;;5082562;28;20242;-85
2021/12/03 06:29:14;;;;;;;9.30;5.65;;;;;;;;;;5083426;28;20258;-86
2021/12/03 06:31:41;;;;;;;10.90;7.63;;;;;;;;;;5079756;28;20622;-84
2021/12/03 06:34:08;;;;;;;8.75;7.20;;;;;;;;;;5078840;28;20277;-85
2021/12/03 06:36:35;;;;;;;9.18;7.68;;;;;;;;;;5079195;28;20235;-86
2021/12/03 06:39:04;;;;;;;7.90;6.18;;;;;;;;;;5079994;28;20632;-85
2021/12/03 06:41:31;;;;;;;10.05;6.72;;;;;;;;;;5079079;28;20233;-86
2021/12/03 06:43:58;;;;;;;9.40;7.65;;;;;;;;;;5075286;28;20298;-85
2021/12/03 06:46:26;;;;;;;11.20;8.13;;;;;;;;;;5072544;28;20631;-85
2021/12/03 06:48:53;;;;;;;10.50;7.50;;;;;;;;;;5060458;28;20611;-85
2021/12/03 06:51:20;;;;;;;9.10;6.97;;;;;;;;;;5060187;28;20214;-85
2021/12/03 06:53:56;;;;;;;12.48;7.60;;;;;;;;;;5065783;28;20195;-84
2021/12/03 06:56:32;;;;;;;9.23;6.80;;;;;;;;;;5062631;28;20286;-84
2021/12/03 06:58:59;;;;;;;9.45;6.93;;;;;;;;;;5059325;28;20223;-85
2021/12/03 07:01:26;;;;;;;10.00;6.95;;;;;;;;;;5060774;28;20703;-85
2021/12/03 07:03:54;;;;;;;13.32;7.00;;;;;;;;;;5061957;28;20649;-85
2021/12/03 07:06:21;;;;;;;7.43;5.85;;;;;;;;;;5062046;28;20210;-84
2021/12/03 07:08:48;;;;;;;8.52;5.85;;;;;;;;;;5062262;28;20202;-85
2021/12/03 07:11:17;;;;;;;5.85;5.30;;;;;;;;;;5060040;28;20753;-85
2021/12/03 07:13:45;;;;;;;10.23;6.72;;;;;;;;;;5057826;28;20653;-85
2021/12/03 07:16:13;;;;;;;7.65;6.05;;;;;;;;;;5058239;28;20208;-85
2021/12/03 07:18:40;;;;;;;8.82;6.75;;;;;;;;;;5062151;28;20227;-85
2021/12/03 07:21:07;;;;;;;7.00;5.85;;;;;;;;;;5061022;28;20208;-85
2021/12/03 07:23:35;;;;;;;8.20;6.93;;;;;;;;;;5057286;28;20253;-85
2021/12/03 07:26:02;;;;;;;8.23;6.25;;;;;;;;;;5057965;28;20653;-85
2021/12/03 07:28:30;;;;;;;9.10;6.20;;;;;;;;;;5058721;28;20211;-85
2021/12/03 07:30:58;;;;;;;19.50;10.30;;;;;;;;;;5061944;28;20211;-85
2021/12/03 07:33:28;;;;;;;13.32;8.18;;;;;;;;;;5062459;28;20196;-85
2021/12/03 07:35:55;;;;;;;10.63;8.60;;;;;;;;;;5059544;28;20211;-85
2021/12/03 07:38:22;;;;;;;10.52;7.47;;;;;;;;;;5062395;28;20626;-85
2021/12/03 07:40:50;;;;;;;8.82;7.40;;;;;;;;;;5060419;28;20203;-85
2021/12/03 07:43:17;;;;;;;9.85;7.20;;;;;;;;;;5055066;28;20204;-86
2021/12/03 07:45:52;;;;;;;10.77;7.90;;;;;;;;;;5062405;28;20204;-86
2021/12/03 07:48:37;;;;;;;8.38;6.90;;;;;;;;;;5070479;28;20234;-86
2021/12/03 07:51:16;;;;;;;10.55;7.13;;;;;;;;;;5062622;28;20665;-87
2021/12/03 07:53:50;;;;;;;15.57;9.15;;;;;;;;;;5061661;28;20223;-85
2021/12/03 07:56:17;;;;;;;11.68;9.00;;;;;;;;;;5061075;28;20192;-84
2021/12/03 07:58:44;;;;;;;10.27;8.50;;;;;;;;;;5065198;28;20220;-84
2021/12/03 08:01:11;;;;;;;11.65;7.93;;;;;;;;;;5063734;28;20212;-85
2021/12/03 08:03:40;;;;;;;11.13;8.25;;;;;;;;;;5063152;28;20615;-86
2021/12/03 08:06:09;;;;;;;12.35;8.63;;;;;;;;;;5063596;28;20258;-87
2021/12/03 08:08:38;;;;;;;12.07;8.57;;;;;;;;;;5063920;28;20204;-87
2021/12/03 08:11:06;;;;;;;14.18;9.70;;;;;;;;;;5063728;28;20208;-87
2021/12/03 08:13:34;;;;;;;11.23;7.60;;;;;;;;;;5060933;28;20204;-87
2021/12/03 08:16:01;;;;;;;16.05;10.07;;;;;;;;;;5062862;28;20587;-87
2021/12/03 08:18:28;;;;;;;13.65;8.70;;;;;;;;;;5061334;28;20296;-87
2021/12/03 08:20:57;;;;;;;10.32;7.95;;;;;;;;;;5060284;28;20230;-87
2021/12/03 08:23:24;;;;;;;13.63;7.35;;;;;;;;;;5059319;28;20279;-87
2021/12/03 08:25:51;;;;;;;10.65;7.07;;;;;;;;;;5061731;28;20191;-87
2021/12/03 08:28:19;;;;;;;6.93;5.35;;;;;;;;;;5060083;28;20605;-87
2021/12/03 08:30:46;;;;;;;12.80;6.35;;;;;;;;;;5060591;28;20261;-87
2021/12/03 08:33:13;;;;;;;11.45;8.90;;;;;;;;;;5058745;28;20200;-87
2021/12/03 08:35:40;;;;;;;10.60;6.68;;;;;;;;;;5059346;28;20346;-85
2021/12/03 08:38:09;;;;;;;6.28;5.68;;;;;;;;;;5060082;28;20208;-87
2021/12/03 08:40:36;;;;;;;6.28;5.57;;;;;;;;;;5053705;28;20227;-87
2021/12/03 08:43:04;;;;;;;6.65;5.85;;;;;;;;;;5057984;28;20205;-87
2021/12/03 08:45:31;;;;;;;5.03;4.38;;;;;;;;;;5064899;28;20564;-87
2021/12/03 08:47:59;;;;;;;4.80;4.40;;;;;;;;;;5060503;28;20211;-88
2021/12/03 08:50:29;;;;;;;4.88;3.95;;;0.60;99.90;;;;;;5058906;28;20306;-87
2021/12/03 08:53:14;;;;;;;4.47;3.70;;;;;;;;;;5056210;28;20920;-87
2021/12/03 08:55:42;;;;;;;8.95;5.78;;;;;;;;;;5057678;28;20923;-87
2021/12/03 08:58:11;;;;;;;4.78;4.38;;;;;;;;;;5056964;28;20254;-88
2021/12/03 09:00:38;;;;;;;4.68;4.00;;;0.80;99.90;;;;;;5061603;28;20223;-88
2021/12/03 09:03:06;;;;;;;8.07;4.80;;;;;;;;;;5053240;28;20723;-88
2021/12/03 09:05:34;;;;;;;9.07;4.28;;;;;;;;;;5062091;28;20620;-88
2021/12/03 09:08:02;;;;;;;5.18;3.60;;;;;;;;;;5058084;28;20661;-87
2021/12/03 09:10:29;;;;;;;4.95;4.20;;;;;;;;;;5058023;28;20259;-86
2021/12/03 09:12:57;;;;;;;5.68;3.60;;;;;;;;;;5061843;28;20207;-87
2021/12/03 09:15:30;;;;;;;4.07;3.55;;;;;;;;;;5061587;28;20200;-88
2021/12/03 09:20:49;;;;;;;4.22;3.70;;;;;;;;;;5039465;28;20619;-87
2021/12/03 09:23:24;;;;;;;3.60;2.97;;;;;;;;;;5057067;28;20200;-88
2021/12/03 09:25:54;;;;;;;5.43;3.80;;;;;;;;;;5059312;28;20202;-87
2021/12/03 09:28:26;;;;;;;6.13;4.13;;;;;;;;;;5055631;28;20852;-87
2021/12/03 09:30:54;;;;;;;5.90;3.88;;;;;;;;;;5060285;28;20200;-88
2021/12/03 09:33:24;;;;;;;3.10;2.90;;;;;;;;;;5058260;28;20665;-87
2021/12/03 09:35:55;;;;;;;3.67;2.85;;;;;;;;;;5058859;28;20912;-87
2021/12/03 09:38:24;;;;;;;4.85;3.55;;;;;;;;;;5055999;28;20256;-87
2021/12/03 09:40:52;;;;;;;5.43;3.15;;;;;;;;;;5057845;28;20274;-87
2021/12/03 09:43:19;;;;;;;3.75;3.10;;;;;;;;;;5057162;28;20203;-87
2021/12/03 09:45:57;;;;;;;4.30;3.53;;;;;;;;;;5061033;28;20258;-86
2021/12/03 09:48:35;;;;;;;2.88;2.67;;;;;;;;;;5061884;28;20206;-86
2021/12/03 09:51:03;;;;;;;5.25;3.95;;;;;;;;;;5058555;28;20210;-86
2021/12/03 09:53:47;;;;;;;6.80;4.63;;;;;;;;;;5058576;28;20271;-86
2021/12/03 09:56:14;;;;;;;9.05;7.38;;;;;;;;;;5056939;28;20208;-86
2021/12/03 10:01:30;;;;;;;4.95;3.55;;;;;;;;;;5058722;28;20665;-86
2021/12/03 10:04:08;;;;;;;5.50;3.40;;;1.10;99.90;;;;;;5057898;28;20218;-86
2021/12/03 10:12:36;;;;;;;3.95;3.65;;;;;;;;;;5029786;28;20212;-86
2021/12/03 10:15:08;;;;;;;4.63;3.67;;;1.30;99.90;;;;;;5055248;28;20684;-86
2021/12/03 10:17:46;;;;;;;4.15;3.85;;;;;;;;;;5055366;28;20199;-86
2021/12/03 10:20:27;;;;;;;5.13;3.75;;;1.40;99.90;;;;;;5059908;28;20685;-86
2021/12/03 10:35:06;;;;;;;6.00;4.10;;;1.40;99.90;;;;;;5059848;28;20284;-85
2021/12/03 10:52:11;;;;;;;6.18;4.15;;;1.70;99.90;;;;;;5022411;28;20303;-85
2021/12/03 11:31:26;;;;;;;5.43;4.50;;;;;;;;;;5081047;28;20215;-84
2021/12/03 11:39:57;;;;;;;4.85;4.40;;;2.50;99.90;;;;;;5092430;28;20242;-84
2021/12/03 13:10:58;;;;;;;3.47;2.80;;;2.50;99.90;;;;;;5083418;28;20390;-83
2021/12/03 13:13:43;;;;;;;3.95;3.55;;;;;;;;;;5075835;28;20292;-83
2021/12/03 14:00:45;;;;;;;4.00;3.70;;;2.30;97.50;;;;;;5084988;28;21159;-82
2021/12/03 14:09:18;;;;;;;3.10;2.45;;;;;;;;;;5055905;28;20255;-83
2021/12/03 14:37:10;;;;;;;6.05;2.78;;;;;;;;;;5039476;28;20240;-84
2021/12/03 14:45:09;;;;;;;4.38;2.90;;;;;;;;;;5083097;28;20310;-84
2021/12/03 14:47:51;;;;;;;2.60;2.40;;;;;;;;;;5083172;28;20212;-84
2021/12/03 14:53:23;;;;;;;7.30;2.58;;;2.30;99.90;;;;;;5074710;28;20238;-84
2021/12/03 14:55:53;;;;;;;4.78;2.63;;;2.20;99.90;;;;;;5080651;28;20200;-83
2021/12/03 14:58:21;;;;;;;5.30;3.65;;;;;;;;;;5081586;28;20215;-83
2021/12/03 15:00:55;;;;;;;3.20;2.63;;;2.20;99.90;;;;;;5082169;28;20227;-83
2021/12/03 15:03:41;;;;;;;3.05;2.85;;;;;;;;;;5072354;28;20199;-84
2021/12/03 15:06:20;;;;;;;3.60;3.25;;;;;;;;;;5079709;28;20203;-84
2021/12/03 15:08:53;;;;;;;3.50;2.67;;;;;;;;;;5074777;28;20204;-83
2021/12/03 15:11:50;;;;;;;3.25;2.92;;;;;;;;;;5079050;28;20203;-83
2021/12/03 15:25:56;;;;;;;3.13;2.83;;;;;;;;;;5081281;28;20725;-83
2021/12/03 15:31:16;;;;;;;3.30;3.00;;;;;;;;;;5082709;28;20353;-83
2021/12/03 15:36:40;;;;;;;2.90;2.65;;;;;;;;;;5082713;28;20266;-82
2021/12/03 15:39:28;;;;;;;3.03;2.70;;;;;;;;;;5084943;28;20248;-83
2021/12/03 15:56:35;;;;;;;4.15;2.88;;;;;;;;;;5070140;28;20216;-84
2021/12/03 16:04:34;;;;;;;3.55;2.60;;;;;;;;;;5087814;28;20199;-83
2021/12/03 16:07:11;;;;;;;3.15;2.95;;;;;;;;;;5087625;28;20203;-83
2021/12/03 16:12:29;;;;;;;4.47;3.85;;;;;;;;;;5073370;28;20218;-82
2021/12/03 16:23:28;;;;;;;7.55;4.35;;;;;;;;;;5062963;28;20624;-83
2021/12/03 16:53:39;;;;;;;3.63;2.92;;;;;;;;;;5084937;28;20215;-83
2021/12/03 16:56:10;;;;;;;4.25;2.88;;;1.60;99.90;;;;;;5084588;28;20195;-83
2021/12/03 16:58:37;;;;;;;5.70;3.45;;;;;;;;;;5081515;28;20227;-83
2021/12/03 17:01:09;;;;;;;4.20;3.60;;;1.40;99.90;;;;;;5082629;28;20793;-83
2021/12/03 17:03:44;;;;;;;3.80;3.50;;;;;;;;;;5085845;28;20212;-83
2021/12/03 17:09:18;;;;;;;8.85;4.20;;;;;;;;;;5084321;28;20290;-83
2021/12/03 17:11:55;;;;;;;4.55;3.25;;;;;;;;;;5079210;28;20200;-83
2021/12/03 17:47:39;;;;;;;3.30;2.53;;;;;;;;;;5079867;28;20205;-83
2021/12/03 17:50:24;;;;;;;3.38;3.15;;;;;;;;;;5081339;28;20195;-82
2021/12/03 17:56:07;;;;;;;7.55;3.35;;;;;;;;;;5037996;28;20205;-82
2021/12/03 17:58:36;;;;;;;2.50;2.30;;;;;;;;;;5079010;28;20211;-83
2021/12/03 18:01:06;;;;;;;3.15;2.88;;;;;;;;;;5083711;28;20292;-82
2021/12/03 18:03:39;;;;;;;4.38;3.40;;;1.50;99.30;;;;;;5080350;28;20199;-82
2021/12/03 18:06:31;;;;;;;2.95;2.75;;;;;;;;;;5083874;28;20195;-83
2021/12/03 18:09:09;;;;;;;4.35;3.00;;;;;;;;;;5082859;28;20196;-82
2021/12/03 18:17:32;;;;;;;3.65;3.22;;;;;;;;;;5078935;28;20230;-83
2021/12/03 18:45:08;;;;;;;10.52;4.05;;;;;;;;;;5071969;28;20224;-83
2021/12/03 18:48:15;;;;;;;3.60;3.10;;;;;;;;;;5077275;28;20211;-82
2021/12/03 18:51:06;;;;;;;3.65;3.35;;;;;;;;;;5077825;28;20197;-83
2021/12/03 18:53:49;;;;;;;2.83;2.63;;;;;;;;;;5078675;28;20206;-83
2021/12/03 18:56:20;;;;;;;3.40;3.10;;;;;;;;;;5068579;28;20215;-83
2021/12/03 18:58:50;;;;;;;4.15;3.45;;;;;;;;;;5082756;28;20346;-83
2021/12/03 19:01:18;;;;;;;5.95;3.30;;;;;;;;;;5083300;28;20234;-82
2021/12/03 19:04:00;;;;;;;4.13;3.53;;;;;;;;;;5085748;28;20217;-83
2021/12/03 19:06:29;;;;;;;4.75;3.63;;;;;;;;;;5083842;28;20211;-83
2021/12/03 19:08:59;;;;;;;8.07;3.47;;;;;;;;;;5086081;28;20217;-82
2021/12/03 19:11:32;;;;;;;5.95;3.55;;;;;;;;;;5083026;28;20215;-83
2021/12/03 19:13:59;;;;;;;3.85;3.25;;;;;;;;;;5082425;28;20569;-83
2021/12/03 19:16:28;;;;;;;5.43;3.75;;;1.90;97.70;;;;;;5082529;28;20274;-83
2021/12/03 19:18:58;;;;;;;3.30;3.10;;;1.90;97.80;;;;;;5083375;28;20739;-83
2021/12/03 19:21:27;;;;;;;4.55;3.30;;;1.80;97.60;;;;;;5080067;28;20231;-82
2021/12/03 19:23:57;;;;;;;3.80;3.50;;;;;;;;;;5084719;28;20207;-83
2021/12/03 19:26:24;;;;;;;4.32;3.45;;;;;;;;;;5084068;28;20677;-82
2021/12/03 19:28:54;;;;;;;4.10;3.50;;;;;;;;;;5080708;28;20271;-83
2021/12/03 19:31:23;;;;;;;4.88;4.35;;;2.00;97.80;;;;;;5086100;28;20564;-83
2021/12/03 19:33:50;;;;;;;4.78;4.13;;;;;;;;;;5083700;28;20195;-83
2021/12/03 19:36:22;;;;;;;7.40;3.50;;;2.00;98.60;;;;;;5083103;28;20226;-83
2021/12/03 19:38:49;;;;;;;4.50;4.00;;;;;;;;;;5085113;28;20299;-82
2021/12/03 19:41:20;;;;;;;5.57;4.10;;;;;;;;;;5082104;28;20250;-82
2021/12/03 19:43:52;;;;;;;3.58;3.28;;;1.80;98.60;;;;;;5085932;28;20239;-83
2021/12/03 19:46:26;;;;;;;5.18;4.55;;;;;;;;;;5083974;28;20214;-84
2021/12/03 19:49:01;;;;;;;3.75;3.35;;;;;;;;;;5085697;28;20199;-83
2021/12/03 19:51:30;;;;;;;4.70;4.30;;;;;;;;;;5081884;28;20663;-83
2021/12/03 19:53:59;;;;;;;4.57;4.13;;;;;;;;;;5088812;28;20198;-83
2021/12/03 19:56:28;;;;;;;4.25;3.17;;;2.10;97.90;;;;;;5083240;28;20197;-83
2021/12/03 19:58:56;;;;;;;4.15;3.75;;;2.10;96.30;;;;;;5082676;28;20258;-83
2021/12/03 20:01:25;;;;;;;4.10;3.70;;;;;;;;;;5086066;28;20680;-82
2021/12/03 20:03:54;;;;;;;3.72;3.38;;;;;;;;;;5080061;28;20232;-83
2021/12/03 20:06:22;;;;;;;3.92;3.47;;;;;;;;;;5085450;28;20569;-83
2021/12/03 20:08:52;;;;;;;4.32;3.38;;;;;;;;;;5082886;28;20216;-82
2021/12/03 20:11:19;;;;;;;6.55;4.78;;;;;;;;;;5086552;28;20211;-83
2021/12/03 20:13:50;;;;;;;4.00;3.65;;;;;;;;;;5084825;28;20668;-83
2021/12/03 20:16:24;;;;;;;4.43;3.63;;;;;;;;;;5083628;28;20220;-82
2021/12/03 20:18:54;;;;;;;4.30;3.80;;;2.20;96.90;;;;;;5084935;28;20204;-83
2021/12/03 20:21:24;;;;;;;3.53;3.22;;;;;;;;;;5083905;28;20241;-82
2021/12/03 20:24:02;;;;;;;4.70;3.83;;;;;;;;;;5081905;28;20203;-83
2021/12/03 20:26:34;;;;;;;5.85;3.65;;;;;;;;;;5079291;28;20207;-83
2021/12/03 20:29:04;;;;;;;3.33;3.03;;;;;;;;;;5081801;28;20207;-82
2021/12/03 20:31:34;;;;;;;4.50;3.55;;;;;;;;;;5086481;28;20734;-83
2021/12/03 20:34:10;;;;;;;4.00;3.58;;;;;;;;;;5082445;28;20205;-82
2021/12/03 20:36:50;;;;;;;7.43;3.58;;;;;;;;;;5085309;28;20604;-83
2021/12/03 20:39:19;;;;;;;4.40;3.55;;;;;;;;;;5079245;28;20319;-83
2021/12/03 20:41:53;;;;;;;4.60;3.50;;;;;;;;;;5082665;28;20664;-83
2021/12/03 20:44:43;;;;;;;3.65;3.35;;;;;;;;;;5082647;28;20216;-83
2021/12/03 20:53:03;;;;;;;8.75;4.32;;;;;;;;;;5054264;28;20301;-83
2021/12/03 21:09:17;;;;;;;4.18;3.83;;;;;;;;;;5079077;28;20207;-83
2021/12/03 21:11:46;;;;;;;4.22;3.65;;;2.10;92.70;;;;;;5081891;28;20212;-83
2021/12/03 21:14:18;;;;;;;6.13;4.38;;;;;;;;;;5081577;28;20207;-82
2021/12/03 21:19:42;;;;;;;5.80;4.53;;;2.30;92.80;;;;;;5080384;28;20219;-83
2021/12/03 21:22:14;;;;;;;4.30;3.83;;;;;;;;;;5080452;28;20304;-83
2021/12/03 21:24:42;;;;;;;6.13;4.60;;;2.20;92.70;;;;;;5080065;28;20235;-83
2021/12/03 21:27:15;;;;;;;5.78;4.15;;;2.20;92.70;;;;;;5080586;28;20210;-83
2021/12/03 21:30:03;;;;;;;4.55;3.85;;;;;;;;;;5078338;28;20222;-82
2021/12/03 21:32:39;;;;;;;3.78;3.42;;;;;;;;;;5084332;28;20254;-83
2021/12/03 21:43:33;;;;;;;4.00;3.67;;;;;;;;;;5034760;28;20213;-83
2021/12/03 21:46:00;;;;;;;3.97;3.60;;;;;;;;;;5061573;28;20369;-83
2021/12/03 21:48:27;;;;;;;3.80;2.75;;;;;;;;;;5083076;28;20231;-82